Time,TemperatureF,DewpointF,PressureIn,WindDirection,WindDirectionDegrees,WindSpeedMPH,WindSpeedGustMPH,Humidity,HourlyPrecipIn,Conditions,Clouds,dailyrainin,SoftwareType,DateUTC
2013-07-25 00:03:00,57.6,56.5,30.02,WSW,250,0.0,0.0,96,0.00,,,0.00,WeatherDisplay:10.37,2013-07-25 05:03:00,
2013-07-25 00:08:00,57.7,56.6,30.02,WSW,250,0.0,0.0,96,0.00,,,0.00,WeatherDisplay:10.37,2013-07-25 05:08:00,
2013-07-25 00:13:00,57.8,56.7,30.02,WSW,250,0.0,1.1,96,0.00,,,0.00,WeatherDisplay:10.37,2013-07-25 05:13:00,
2013-07-25 00:18:00,58.0,56.9,30.02,WSW,250,0.0,0.0,96,0.00,,,0.00,WeatherDisplay:10.37,2013-07-25 05:18:00,
2013-07-25 00:24:00,58.0,56.9,30.02,WSW,250,0.0,0.0,96,0.00,,,0.00,WeatherDisplay:10.37,2013-07-25 05:24:00,
2013-07-25 00:29:00,57.9,56.8,30.02,WSW,250,0.0,0.0,96,0.00,,,0.00,WeatherDisplay:10.37,2013-07-25 05:29:00,
2013-07-25 00:34:00,57.7,56.6,30.02,WSW,250,0.0,0.0,96,0.00,,,0.00,WeatherDisplay:10.37,2013-07-25 05:34:00,
2013-07-25 00:39:00,57.8,56.7,30.02,WSW,250,0.0,0.0,96,0.00,,,0.00,WeatherDisplay:10.37,2013-07-25 05:39:00,
2013-07-25 00:44:00,57.8,56.4,30.02,WSW,250,0.0,0.0,95,0.00,,,0.00,WeatherDisplay:10.37,2013-07-25 05:44:00,
2013-07-25 00:49:00,57.5,56.1,30.02,WSW,250,0.0,0.0,95,0.00,,,0.00,WeatherDisplay:10.37,2013-07-25 05:49:00,
2013-07-25 00:54:00,57.2,55.8,30.02,WSW,250,0.0,0.0,95,0.00,,,0.00,WeatherDisplay:10.37,2013-07-25 05:54:00,
2013-07-25 00:59:00,57.0,55.6,30.02,WSW,250,0.0,0.0,95,0.00,,,0.00,WeatherDisplay:10.37,2013-07-25 05:59:00,
2013-07-25 01:04:00,56.8,55.4,30.02,SSE,151,0.0,0.0,95,0.00,,,0.00,WeatherDisplay:10.37,2013-07-25 06:04:00,
2013-07-25 01:09:00,56.5,55.1,30.02,SSE,150,0.0,0.0,95,0.00,,,0.00,WeatherDisplay:10.37,2013-07-25 06:09:00,
2013-07-25 01:14:00,56.3,54.9,30.02,SSE,150,0.0,0.0,95,0.00,,,0.00,WeatherDisplay:10.37,2013-07-25 06:14:00,
2013-07-25 01:19:00,56.2,55.1,30.02,SSE,152,0.0,0.0,96,0.00,,,0.00,WeatherDisplay:10.37,2013-07-25 06:19:00,
2013-07-25 01:24:00,56.1,55.0,30.02,SSE,152,0.0,0.0,96,0.00,,,0.00,WeatherDisplay:10.37,2013-07-25 06:24:00,
2013-07-25 01:29:00,56.0,54.9,30.02,SSE,152,0.0,0.0,96,0.00,,,0.00,WeatherDisplay:10.37,2013-07-25 06:29:00,
2013-07-25 01:34:00,55.8,54.7,30.02,SSE,152,0.0,0.0,96,0.00,,,0.00,WeatherDisplay:10.37,2013-07-25 06:34:00,
2013-07-25 01:39:00,55.8,54.7,30.02,SSE,152,0.0,0.0,96,0.00,,,0.00,WeatherDisplay:10.37,2013-07-25 06:39:00,
2013-07-25 01:44:00,55.8,54.7,30.02,SSE,152,0.0,0.0,96,0.00,,,0.00,WeatherDisplay:10.37,2013-07-25 06:44:00,
2013-07-25 01:50:00,55.8,54.7,30.02,SSE,152,0.0,0.0,96,0.00,,,0.00,WeatherDisplay:10.37,2013-07-25 06:50:00,
2013-07-25 01:55:00,55.9,55.1,30.02,SSE,152,0.0,0.0,97,0.00,,,0.00,WeatherDisplay:10.37,2013-07-25 06:55:00,
2013-07-25 02:00:00,55.8,55.0,30.01,SSE,152,0.0,0.0,97,0.00,,,0.00,WeatherDisplay:10.37,2013-07-25 07:00:00,
2013-07-25 02:05:00,55.6,54.5,30.01,SSE,152,0.0,0.0,96,0.00,,,0.00,WeatherDisplay:10.37,2013-07-25 07:05:00,
2013-07-25 02:10:00,55.6,54.8,30.01,SSE,152,0.0,0.0,97,0.00,,,0.00,WeatherDisplay:10.37,2013-07-25 07:10:00,
2013-07-25 02:15:00,55.5,54.4,30.01,SSE,152,0.0,0.0,96,0.00,,,0.00,WeatherDisplay:10.37,2013-07-25 07:15:00,
2013-07-25 02:20:00,55.3,54.2,30.01,SSE,152,0.0,0.0,96,0.00,,,0.00,WeatherDisplay:10.37,2013-07-25 07:20:00,
2013-07-25 02:25:00,55.5,54.7,30.01,SSE,152,0.0,0.0,97,0.00,,,0.00,WeatherDisplay:10.37,2013-07-25 07:25:00,
2013-07-25 02:30:00,55.5,54.6,30.01,SSE,152,0.0,0.0,97,0.00,,,0.00,WeatherDisplay:10.37,2013-07-25 07:30:00,
2013-07-25 02:35:00,55.3,54.4,30.01,SSE,152,0.0,0.0,97,0.00,,,0.00,WeatherDisplay:10.37,2013-07-25 07:35:00,
2013-07-25 02:40:00,55.1,54.0,30.01,SSE,152,0.0,0.0,96,0.00,,,0.00,WeatherDisplay:10.37,2013-07-25 07:40:00,
2013-07-25 02:45:00,55.2,54.4,30.01,SSE,152,0.0,0.0,97,0.00,,,0.00,WeatherDisplay:10.37,2013-07-25 07:45:00,
2013-07-25 02:50:00,55.2,54.4,30.01,SSE,152,0.0,0.0,97,0.00,,,0.00,WeatherDisplay:10.37,2013-07-25 07:50:00,
2013-07-25 02:55:00,55.2,54.4,30.01,SSE,152,0.0,0.0,97,0.00,,,0.00,WeatherDisplay:10.37,2013-07-25 07:55:00,
2013-07-25 03:00:00,55.0,54.2,30.01,SSE,152,0.0,0.0,97,0.00,,,0.00,WeatherDisplay:10.37,2013-07-25 08:00:00,
2013-07-25 03:05:00,54.9,54.1,30.01,SSE,152,0.0,1.0,97,0.00,,,0.00,WeatherDisplay:10.37,2013-07-25 08:05:00,
2013-07-25 03:10:00,55.4,54.6,30.02,ESE,108,0.4,2.3,97,0.00,,,0.00,WeatherDisplay:10.37,2013-07-25 08:10:00,
2013-07-25 03:15:00,55.7,54.9,30.02,ESE,108,0.0,0.0,97,0.00,,,0.00,WeatherDisplay:10.37,2013-07-25 08:15:00,
2013-07-25 03:20:00,55.8,54.7,30.03,ESE,108,0.0,1.1,96,0.00,,,0.00,WeatherDisplay:10.37,2013-07-25 08:20:00,
2013-07-25 03:26:00,55.7,54.6,30.02,ESE,108,0.0,0.0,96,0.00,,,0.00,WeatherDisplay:10.37,2013-07-25 08:26:00,
2013-07-25 03:31:00,55.7,54.6,30.03,ESE,108,0.0,1.1,96,0.00,,,0.00,WeatherDisplay:10.37,2013-07-25 08:31:00,
2013-07-25 03:36:00,55.5,54.1,30.03,ESE,108,0.0,0.0,95,0.00,,,0.00,WeatherDisplay:10.37,2013-07-25 08:36:00,
2013-07-25 03:41:00,55.2,53.8,30.03,ESE,108,0.0,0.0,95,0.00,,,0.00,WeatherDisplay:10.37,2013-07-25 08:41:00,
2013-07-25 03:45:00,81.6,65.4,30.01,SSE,155,3.0,6.0,58,0.00,CLR,,0.00,WeatherDisplay:10.37,2013-07-25 08:45:00,
2013-07-25 03:46:00,54.9,53.5,30.04,ESE,108,0.0,0.0,95,0.00,,,0.00,WeatherDisplay:10.37,2013-07-25 08:46:00,
2013-07-25 03:51:00,54.9,53.8,30.04,ESE,108,0.0,0.0,96,0.00,,,0.00,WeatherDisplay:10.37,2013-07-25 08:51:00,
2013-07-25 03:56:00,54.8,53.7,30.04,ESE,109,0.0,0.0,96,0.00,,,0.00,WeatherDisplay:10.37,2013-07-25 08:56:00,
2013-07-25 04:01:00,54.8,53.7,30.04,ESE,108,0.0,0.0,96,0.00,,,0.00,WeatherDisplay:10.37,2013-07-25 09:01:00,
2013-07-25 04:07:00,55.0,54.2,30.04,ESE,108,0.0,0.0,97,0.00,,,0.00,WeatherDisplay:10.37,2013-07-25 09:07:00,
2013-07-25 04:12:00,54.9,53.8,30.04,ESE,108,0.0,0.0,96,0.00,,,0.00,WeatherDisplay:10.37,2013-07-25 09:12:00,
2013-07-25 04:17:00,54.6,53.5,30.05,ESE,108,0.0,0.0,96,0.00,,,0.00,WeatherDisplay:10.37,2013-07-25 09:17:00,
2013-07-25 04:22:00,54.3,53.2,30.04,ESE,108,0.0,0.0,96,0.00,,,0.00,WeatherDisplay:10.37,2013-07-25 09:22:00,
2013-07-25 04:27:00,54.1,53.0,30.04,ESE,109,0.0,0.0,96,0.00,,,0.00,WeatherDisplay:10.37,2013-07-25 09:27:00,
2013-07-25 04:32:00,54.0,52.9,30.04,ESE,108,0.0,0.0,96,0.00,,,0.00,WeatherDisplay:10.37,2013-07-25 09:32:00,
2013-07-25 04:37:00,53.9,52.8,30.04,ESE,108,0.0,0.0,96,0.00,,,0.00,WeatherDisplay:10.37,2013-07-25 09:37:00,
2013-07-25 04:42:00,53.8,53.0,30.04,ESE,108,0.0,0.0,97,0.00,,,0.00,WeatherDisplay:10.37,2013-07-25 09:42:00,
2013-07-25 04:47:00,53.8,53.0,30.04,ESE,108,0.0,0.0,97,0.00,,,0.00,WeatherDisplay:10.37,2013-07-25 09:47:00,
2013-07-25 04:52:00,53.8,53.0,30.04,ESE,109,0.0,0.0,97,0.00,,,0.00,WeatherDisplay:10.37,2013-07-25 09:52:00,
2013-07-25 04:57:00,53.6,52.8,30.05,ESE,108,0.0,0.0,97,0.00,,,0.00,WeatherDisplay:10.37,2013-07-25 09:57:00,
2013-07-25 05:02:00,53.6,52.8,30.04,ESE,108,0.0,0.0,97,0.00,,,0.00,WeatherDisplay:10.37,2013-07-25 10:02:00,
2013-07-25 05:07:00,53.9,53.1,30.04,ESE,108,0.0,0.0,97,0.00,,,0.00,WeatherDisplay:10.37,2013-07-25 10:07:00,
2013-07-25 05:12:00,54.0,53.2,30.04,ESE,108,0.0,0.0,97,0.00,,,0.00,WeatherDisplay:10.37,2013-07-25 10:12:00,
2013-07-25 05:17:00,54.3,53.5,30.04,ESE,108,0.0,0.0,97,0.00,,,0.00,WeatherDisplay:10.37,2013-07-25 10:17:00,
2013-07-25 05:22:00,54.4,53.6,30.05,ESE,108,0.0,0.0,97,0.00,CLR,,0.00,WeatherDisplay:10.37,2013-07-25 10:22:00,
2013-07-25 05:27:00,54.4,53.3,30.04,ESE,108,0.0,0.0,96,0.00,CLR,,0.00,WeatherDisplay:10.37,2013-07-25 10:27:00,
2013-07-25 05:32:00,54.3,53.2,30.04,ESE,109,0.0,0.0,96,0.00,CLR,,0.00,WeatherDisplay:10.37,2013-07-25 10:32:00,
2013-07-25 05:37:00,54.1,53.0,30.04,ESE,109,0.0,0.0,96,0.00,CLR,,0.00,WeatherDisplay:10.37,2013-07-25 10:37:00,
2013-07-25 05:42:00,54.0,52.9,30.04,ESE,109,0.0,0.0,96,0.00,CLR,,0.00,WeatherDisplay:10.37,2013-07-25 10:42:00,
2013-07-25 05:47:00,53.9,52.8,30.04,ESE,109,0.0,0.0,96,0.00,CLR,,0.00,WeatherDisplay:10.37,2013-07-25 10:47:00,
2013-07-25 05:53:00,53.8,52.7,30.05,ESE,109,0.0,0.0,96,0.00,CLR,,0.00,WeatherDisplay:10.37,2013-07-25 10:53:00,
2013-07-25 05:58:00,53.9,53.1,30.05,ESE,109,0.0,0.0,97,0.00,CLR,,0.00,WeatherDisplay:10.37,2013-07-25 10:58:00,
2013-07-25 06:03:00,53.9,53.1,30.06,ESE,109,0.0,0.0,97,0.00,CLR,,0.00,WeatherDisplay:10.37,2013-07-25 11:03:00,
2013-07-25 06:08:00,54.2,53.4,30.06,ESE,110,0.0,0.0,97,0.00,CLR,,0.00,WeatherDisplay:10.37,2013-07-25 11:08:00,
2013-07-25 06:13:00,54.4,53.6,30.06,SE,142,0.0,1.1,97,0.00,CLR,,0.00,WeatherDisplay:10.37,2013-07-25 11:13:00,
2013-07-25 06:18:00,54.5,53.7,30.06,SE,143,0.0,0.0,97,0.00,CLR,,0.00,WeatherDisplay:10.37,2013-07-25 11:18:00,
2013-07-25 06:23:00,54.7,53.6,30.06,SE,142,0.0,0.0,96,0.00,CLR,,0.00,WeatherDisplay:10.37,2013-07-25 11:23:00,
2013-07-25 06:28:00,54.9,53.8,30.06,SE,142,0.0,1.1,96,0.00,CLR,,0.00,WeatherDisplay:10.37,2013-07-25 11:28:00,
2013-07-25 06:33:00,55.3,53.9,30.06,SE,142,0.0,0.0,95,0.00,CLR,,0.00,WeatherDisplay:10.37,2013-07-25 11:33:00,
2013-07-25 06:39:00,55.6,54.2,30.06,SE,142,0.0,0.0,95,0.00,CLR,,0.00,WeatherDisplay:10.37,2013-07-25 11:39:00,
2013-07-25 06:44:00,55.8,54.4,30.06,SE,142,0.0,0.0,95,0.00,CLR,,0.00,WeatherDisplay:10.37,2013-07-25 11:44:00,
2013-07-25 06:49:00,55.9,54.5,30.06,SE,142,0.0,0.0,95,0.00,CLR,,0.00,WeatherDisplay:10.37,2013-07-25 11:49:00,
2013-07-25 06:54:00,56.2,54.8,30.06,SSE,153,0.7,1.0,95,0.00,CLR,,0.00,WeatherDisplay:10.37,2013-07-25 11:54:00,
2013-07-25 06:59:00,56.5,55.1,30.06,SSW,205,0.0,0.0,95,0.00,CLR,,0.00,WeatherDisplay:10.37,2013-07-25 11:59:00,
2013-07-25 07:04:00,56.8,55.4,30.07,SSW,205,0.0,0.0,95,0.00,CLR,,0.00,WeatherDisplay:10.37,2013-07-25 12:04:00,
2013-07-25 07:09:00,57.3,55.9,30.07,SW,219,0.3,1.1,95,0.00,CLR,,0.00,WeatherDisplay:10.37,2013-07-25 12:09:00,
2013-07-25 07:14:00,57.8,56.4,30.07,SSE,167,0.3,2.0,95,0.00,CLR,,0.00,WeatherDisplay:10.37,2013-07-25 12:14:00,
2013-07-25 07:19:00,58.2,56.8,30.07,South,181,0.0,0.0,95,0.00,CLR,,0.00,WeatherDisplay:10.37,2013-07-25 12:19:00,
2013-07-25 07:25:00,59.2,57.8,30.06,South,181,0.0,1.1,95,0.00,CLR,,0.00,WeatherDisplay:10.37,2013-07-25 12:25:00,
2013-07-25 07:28:00,60.2,58.2,30.07,SSW,203,0.7,3.5,93,0.00,CLR,,0.00,WeatherDisplay:10.37,2013-07-25 12:28:00,
2013-07-25 07:33:00,61.6,59.3,30.06,South,184,0.3,1.1,92,0.00,CLR,,0.00,WeatherDisplay:10.37,2013-07-25 12:33:00,
2013-07-25 07:39:00,62.9,59.6,30.06,SSW,200,0.4,1.1,89,0.00,CLR,,0.00,WeatherDisplay:10.37,2013-07-25 12:39:00,
2013-07-25 07:44:00,63.9,59.6,30.05,South,183,1.5,3.5,86,0.00,CLR,,0.00,WeatherDisplay:10.37,2013-07-25 12:44:00,
2013-07-25 07:49:00,64.5,60.2,30.05,SSW,195,1.1,2.3,86,0.00,CLR,,0.00,WeatherDisplay:10.37,2013-07-25 12:49:00,
2013-07-25 07:54:00,64.7,59.8,30.06,SSE,160,1.5,2.3,84,0.00,CLR,,0.00,WeatherDisplay:10.37,2013-07-25 12:54:00,
2013-07-25 07:59:00,65.0,60.0,30.06,South,179,1.8,3.5,84,0.00,CLR,,0.00,WeatherDisplay:10.37,2013-07-25 12:59:00,
2013-07-25 08:04:00,65.5,60.5,30.06,SSW,212,1.7,3.5,84,0.00,CLR,,0.00,WeatherDisplay:10.37,2013-07-25 13:04:00,
2013-07-25 08:10:00,66.2,60.9,30.06,SW,224,1.3,2.3,83,0.00,CLR,,0.00,WeatherDisplay:10.37,2013-07-25 13:10:00,
2013-07-25 08:15:00,66.8,61.5,30.06,SSW,205,1.0,2.3,83,0.00,CLR,,0.00,WeatherDisplay:10.37,2013-07-25 13:15:00,
2013-07-25 08:20:00,66.9,61.2,30.06,SW,231,0.8,3.5,82,0.00,CLR,,0.00,WeatherDisplay:10.37,2013-07-25 13:20:00,
2013-07-25 08:25:00,67.1,60.7,30.06,SSW,212,1.8,3.5,80,0.00,CLR,,0.00,WeatherDisplay:10.37,2013-07-25 13:25:00,
2013-07-25 08:30:00,67.5,61.5,30.06,SW,224,1.7,3.5,81,0.00,CLR,,0.00,WeatherDisplay:10.37,2013-07-25 13:30:00,
2013-07-25 08:36:00,67.7,61.0,30.06,SW,226,1.9,3.5,79,0.00,CLR,,0.00,WeatherDisplay:10.37,2013-07-25 13:36:00,
2013-07-25 08:41:00,68.1,62.0,30.07,SW,218,0.1,1.1,81,0.00,CLR,,0.00,WeatherDisplay:10.37,2013-07-25 13:41:00,
2013-07-25 08:46:00,69.0,62.9,30.07,SSW,205,0.9,3.5,81,0.00,CLR,,0.00,WeatherDisplay:10.37,2013-07-25 13:46:00,
2013-07-25 08:51:00,69.4,62.2,30.06,SW,236,1.5,3.5,78,0.00,CLR,,0.00,WeatherDisplay:10.37,2013-07-25 13:51:00,
2013-07-25 08:56:00,69.4,62.6,30.07,WSW,250,1.5,3.5,79,0.00,CLR,,0.00,WeatherDisplay:10.37,2013-07-25 13:56:00,
2013-07-25 09:01:00,69.6,62.4,30.07,SSW,205,1.4,2.3,78,0.00,CLR,,0.00,WeatherDisplay:10.37,2013-07-25 14:01:00,
2013-07-25 09:07:00,70.1,63.3,30.07,SW,228,0.9,2.3,79,0.00,CLR,,0.00,WeatherDisplay:10.37,2013-07-25 14:07:00,
2013-07-25 09:12:00,70.5,62.9,30.07,SW,225,0.9,3.5,77,0.00,CLR,,0.00,WeatherDisplay:10.37,2013-07-25 14:12:00,
2013-07-25 09:17:00,71.3,63.3,30.07,SSW,212,1.8,2.3,76,0.00,CLR,,0.00,WeatherDisplay:10.37,2013-07-25 14:17:00,
2013-07-25 09:22:00,71.7,62.6,30.07,WSW,253,1.5,2.3,73,0.00,CLR,,0.00,WeatherDisplay:10.37,2013-07-25 14:22:00,
2013-07-25 09:27:00,71.9,62.4,30.07,WSW,248,2.0,3.0,72,0.00,CLR,,0.00,WeatherDisplay:10.37,2013-07-25 14:27:00,
2013-07-25 09:32:00,72.2,62.7,30.07,WSW,238,1.3,2.3,72,0.00,CLR,,0.00,WeatherDisplay:10.37,2013-07-25 14:32:00,
2013-07-25 09:37:00,72.6,64.6,30.07,SW,233,1.4,3.5,76,0.00,CLR,,0.00,WeatherDisplay:10.37,2013-07-25 14:37:00,
2013-07-25 09:42:00,73.3,64.5,30.07,WSW,239,2.4,4.6,74,0.00,CLR,,0.00,WeatherDisplay:10.37,2013-07-25 14:42:00,
2013-07-25 09:47:00,73.4,64.2,30.07,WSW,238,1.4,3.5,73,0.00,CLR,,0.00,WeatherDisplay:10.37,2013-07-25 14:47:00,
2013-07-25 09:53:00,73.7,63.7,30.07,SW,215,1.5,3.5,71,0.00,CLR,,0.00,WeatherDisplay:10.37,2013-07-25 14:53:00,
2013-07-25 09:58:00,74.0,62.8,30.07,WSW,249,1.7,3.5,68,0.00,CLR,,0.00,WeatherDisplay:10.37,2013-07-25 14:58:00,
2013-07-25 10:03:00,74.1,62.4,30.07,SW,217,1.5,3.5,67,0.00,CLR,,0.00,WeatherDisplay:10.37,2013-07-25 15:03:00,
2013-07-25 10:09:00,74.5,63.7,30.06,West,281,2.2,3.5,69,0.00,CLR,,0.00,WeatherDisplay:10.37,2013-07-25 15:09:00,
2013-07-25 10:14:00,74.7,63.0,30.07,SSW,211,2.1,4.6,67,0.00,CLR,,0.00,WeatherDisplay:10.37,2013-07-25 15:14:00,
2013-07-25 10:19:00,74.8,62.2,30.07,WSW,257,1.3,3.5,65,0.00,CLR,,0.00,WeatherDisplay:10.37,2013-07-25 15:19:00,
2013-07-25 10:25:00,75.2,63.9,30.07,SW,223,2.4,3.5,68,0.00,CLR,,0.00,WeatherDisplay:10.37,2013-07-25 15:25:00,
2013-07-25 10:30:00,75.2,64.4,30.07,WSW,237,2.0,5.0,69,0.00,CLR,,0.00,WeatherDisplay:10.37,2013-07-25 15:30:00,
2013-07-25 10:35:00,75.2,63.5,30.07,WNW,283,2.5,3.5,67,0.00,CLR,,0.00,WeatherDisplay:10.37,2013-07-25 15:35:00,
2013-07-25 10:40:00,75.2,64.3,30.07,SW,228,2.3,4.6,69,0.00,CLR,,0.00,WeatherDisplay:10.37,2013-07-25 15:40:00,
2013-07-25 10:45:00,75.8,64.5,30.07,SW,214,0.9,4.6,68,0.00,CLR,,0.00,WeatherDisplay:10.37,2013-07-25 15:45:00,
2013-07-25 10:50:00,76.0,63.8,30.06,West,273,3.0,5.0,66,0.00,CLR,,0.00,WeatherDisplay:10.37,2013-07-25 15:50:00,
2013-07-25 10:56:00,75.7,64.4,30.06,SSW,209,3.2,5.8,68,0.00,CLR,,0.00,WeatherDisplay:10.37,2013-07-25 15:56:00,
2013-07-25 11:01:00,75.9,65.0,30.07,South,180,3.8,5.0,69,0.00,CLR,,0.00,WeatherDisplay:10.37,2013-07-25 16:01:00,
2013-07-25 11:06:00,76.0,63.4,30.06,WNW,288,2.6,3.5,65,0.00,CLR,,0.00,WeatherDisplay:10.37,2013-07-25 16:06:00,
2013-07-25 11:11:00,76.0,64.7,30.07,WSW,247,2.9,5.8,68,0.00,CLR,,0.00,WeatherDisplay:10.37,2013-07-25 16:11:00,
2013-07-25 11:16:00,76.2,64.4,30.07,SW,224,2.8,4.6,67,0.00,CLR,,0.00,WeatherDisplay:10.37,2013-07-25 16:16:00,
2013-07-25 11:21:00,76.6,64.8,30.07,SW,229,1.7,3.5,67,0.00,CLR,,0.00,WeatherDisplay:10.37,2013-07-25 16:21:00,
2013-07-25 11:22:00,76.9,65.5,30.07,SW,225,2.0,3.5,68,0.00,CLR,,0.00,WeatherDisplay:10.37,2013-07-25 16:22:00,
2013-07-25 11:28:00,76.9,65.1,30.07,WNW,286,2.7,4.6,67,0.00,CLR,,0.00,WeatherDisplay:10.37,2013-07-25 16:28:00,
2013-07-25 11:33:00,76.9,64.7,30.07,WSW,240,1.8,3.5,66,0.00,CLR,,0.00,WeatherDisplay:10.37,2013-07-25 16:33:00,
2013-07-25 11:38:00,77.4,64.7,30.07,West,270,2.5,3.5,65,0.00,CLR,,0.00,WeatherDisplay:10.37,2013-07-25 16:38:00,
2013-07-25 11:44:00,77.7,65.4,30.07,SW,217,3.0,5.0,66,0.00,CLR,,0.00,WeatherDisplay:10.37,2013-07-25 16:44:00,
2013-07-25 11:49:00,77.8,65.1,30.07,SW,233,2.1,3.5,65,0.00,CLR,,0.00,WeatherDisplay:10.37,2013-07-25 16:49:00,
2013-07-25 11:54:00,78.4,66.1,30.07,SSW,200,0.5,2.3,66,0.00,CLR,,0.00,WeatherDisplay:10.37,2013-07-25 16:54:00,
2013-07-25 11:59:00,78.8,65.1,30.07,SW,222,1.9,3.5,63,0.00,CLR,,0.00,WeatherDisplay:10.37,2013-07-25 16:59:00,
2013-07-25 12:04:00,78.7,65.9,30.07,West,273,1.8,3.5,65,0.00,CLR,,0.00,WeatherDisplay:10.37,2013-07-25 17:04:00,
2013-07-25 12:09:00,78.5,63.0,30.07,West,278,2.2,4.0,59,0.00,CLR,,0.00,WeatherDisplay:10.37,2013-07-25 17:09:00,
2013-07-25 12:14:00,78.3,65.6,30.07,SW,230,2.3,4.6,65,0.00,CLR,,0.00,WeatherDisplay:10.37,2013-07-25 17:14:00,
2013-07-25 12:19:00,78.9,65.2,30.07,West,277,1.2,2.3,63,0.00,CLR,,0.00,WeatherDisplay:10.37,2013-07-25 17:19:00,
2013-07-25 12:24:00,78.8,64.2,30.07,WSW,238,2.6,6.9,61,0.00,CLR,,0.00,WeatherDisplay:10.37,2013-07-25 17:24:00,
2013-07-25 12:29:00,78.8,66.9,30.07,WNW,293,2.9,3.5,67,0.00,CLR,,0.00,WeatherDisplay:10.37,2013-07-25 17:29:00,
2013-07-25 12:35:00,78.6,64.9,30.06,WSW,257,1.6,3.5,63,0.00,CLR,,0.00,WeatherDisplay:10.37,2013-07-25 17:35:00,
2013-07-25 12:40:00,78.5,65.8,30.06,West,276,3.3,5.8,65,0.00,CLR,,0.00,WeatherDisplay:10.37,2013-07-25 17:40:00,
2013-07-25 12:45:00,78.9,64.3,30.06,West,274,2.0,3.5,61,0.00,CLR,,0.00,WeatherDisplay:10.37,2013-07-25 17:45:00,
2013-07-25 12:50:00,79.0,65.3,30.06,SW,222,1.0,4.0,63,0.00,CLR,,0.00,WeatherDisplay:10.37,2013-07-25 17:50:00,
2013-07-25 12:55:00,80.0,65.3,30.06,West,262,2.3,3.5,61,0.00,CLR,,0.00,WeatherDisplay:10.37,2013-07-25 17:55:00,
2013-07-25 13:00:00,80.3,65.2,30.06,SW,233,3.0,5.0,60,0.00,CLR,,0.00,WeatherDisplay:10.37,2013-07-25 18:00:00,
2013-07-25 13:05:00,80.2,65.1,30.06,SW,228,3.0,5.0,60,0.00,CLR,,0.00,WeatherDisplay:10.37,2013-07-25 18:05:00,
2013-07-25 13:10:00,80.5,63.9,30.06,WSW,255,1.6,3.5,57,0.00,CLR,,0.00,WeatherDisplay:10.37,2013-07-25 18:10:00,
2013-07-25 13:15:00,80.8,64.1,30.05,SW,229,0.0,0.0,57,0.00,CLR,,0.00,WeatherDisplay:10.37,2013-07-25 18:15:00,
2013-07-25 13:20:00,81.4,64.2,30.05,West,271,0.9,2.3,56,0.00,CLR,,0.00,WeatherDisplay:10.37,2013-07-25 18:20:00,
2013-07-25 13:25:00,81.1,66.8,30.05,WNW,283,1.9,3.5,62,0.00,CLR,,0.00,WeatherDisplay:10.37,2013-07-25 18:25:00,
2013-07-25 13:30:00,80.9,66.7,30.05,West,263,2.9,4.0,62,0.00,CLR,,0.00,WeatherDisplay:10.37,2013-07-25 18:30:00,
2013-07-25 13:35:00,80.7,65.5,30.05,WSW,245,3.2,4.6,60,0.00,CLR,,0.00,WeatherDisplay:10.37,2013-07-25 18:35:00,
2013-07-25 13:36:00,80.7,65.5,30.05,WSW,238,3.2,4.6,60,0.00,CLR,,0.00,WeatherDisplay:10.37,2013-07-25 18:36:00,
2013-07-25 13:41:00,80.3,66.1,30.05,NW,323,1.3,5.8,62,0.00,CLR,,0.00,WeatherDisplay:10.37,2013-07-25 18:41:00,
2013-07-25 13:46:00,80.3,65.6,30.05,WSW,257,0.3,1.1,61,0.00,CLR,,0.00,WeatherDisplay:10.37,2013-07-25 18:46:00,
2013-07-25 13:51:00,80.3,63.7,30.05,WNW,287,1.6,3.5,57,0.00,CLR,,0.00,WeatherDisplay:10.37,2013-07-25 18:51:00,
2013-07-25 13:56:00,80.0,65.3,30.04,SW,226,2.1,5.0,61,0.00,CLR,,0.00,WeatherDisplay:10.37,2013-07-25 18:56:00,
2013-07-25 14:01:00,80.3,66.1,30.04,SSE,148,2.3,5.8,62,0.00,CLR,,0.00,WeatherDisplay:10.37,2013-07-25 19:01:00,
2013-07-25 14:06:00,80.8,64.6,30.04,NE,41,0.0,1.0,58,0.00,CLR,,0.00,WeatherDisplay:10.37,2013-07-25 19:06:00,
2013-07-25 14:12:00,81.7,67.4,30.04,SW,226,1.4,3.0,62,0.00,CLR,,0.00,WeatherDisplay:10.37,2013-07-25 19:12:00,
2013-07-25 14:17:00,82.1,66.8,30.04,South,176,1.3,3.5,60,0.00,CLR,,0.00,WeatherDisplay:10.37,2013-07-25 19:17:00,
2013-07-25 14:22:00,82.3,67.0,30.04,WSW,242,0.9,2.0,60,0.00,CLR,,0.00,WeatherDisplay:10.37,2013-07-25 19:22:00,
2013-07-25 14:27:00,82.6,68.3,30.04,SW,221,0.0,1.1,62,0.00,CLR,,0.00,WeatherDisplay:10.37,2013-07-25 19:27:00,
2013-07-25 14:32:00,83.2,68.3,30.03,WSW,243,2.3,4.6,61,0.00,CLR,,0.00,WeatherDisplay:10.37,2013-07-25 19:32:00,
2013-07-25 14:37:00,82.4,68.5,30.03,SW,218,1.7,3.5,63,0.00,CLR,,0.00,WeatherDisplay:10.37,2013-07-25 19:37:00,
2013-07-25 14:42:00,82.1,67.3,30.03,WSW,243,2.6,4.6,61,0.00,CLR,,0.00,WeatherDisplay:10.37,2013-07-25 19:42:00,
2013-07-25 14:47:00,82.1,64.8,30.03,SW,229,1.0,2.3,56,0.00,CLR,,0.00,WeatherDisplay:10.37,2013-07-25 19:47:00,
2013-07-25 14:52:00,82.7,67.4,30.03,SW,214,3.4,4.6,60,0.00,CLR,,0.00,WeatherDisplay:10.37,2013-07-25 19:52:00,
2013-07-25 14:57:00,82.8,67.0,30.02,SSW,203,2.6,4.0,59,0.00,CLR,,0.00,WeatherDisplay:10.37,2013-07-25 19:57:00,
2013-07-25 15:02:00,82.3,67.0,30.02,SSE,156,2.0,3.5,60,0.00,CLR,,0.00,WeatherDisplay:10.37,2013-07-25 20:02:00,
2013-07-25 15:07:00,82.3,66.5,30.02,South,173,2.0,3.5,59,0.00,CLR,,0.00,WeatherDisplay:10.37,2013-07-25 20:07:00,
2013-07-25 15:12:00,82.9,67.6,30.01,SE,141,1.3,2.3,60,0.00,CLR,,0.00,WeatherDisplay:10.37,2013-07-25 20:12:00,
2013-07-25 15:17:00,83.4,68.1,30.01,SE,134,3.0,3.5,60,0.00,CLR,,0.00,WeatherDisplay:10.37,2013-07-25 20:17:00,
2013-07-25 15:48:00,80.9,65.2,30.01,SSW,200,4.0,4.0,59,0.00,CLR,,0.00,WeatherDisplay:10.37,2013-07-25 20:48:00,
2013-07-25 15:53:00,80.4,64.8,30.00,SW,214,3.1,6.9,59,0.00,CLR,,0.00,WeatherDisplay:10.37,2013-07-25 20:53:00,
2013-07-25 16:03:00,80.3,66.1,30.01,SSW,192,2.5,3.5,62,0.00,CLR,,0.00,WeatherDisplay:10.37,2013-07-25 21:03:00,
2013-07-25 16:08:00,80.2,65.5,30.01,WNW,288,2.9,3.5,61,0.00,CLR,,0.00,WeatherDisplay:10.37,2013-07-25 21:08:00,
2013-07-25 16:13:00,80.5,67.6,30.01,SW,226,1.7,3.5,65,0.00,CLR,,0.00,WeatherDisplay:10.37,2013-07-25 21:13:00,
2013-07-25 16:18:00,81.2,66.5,30.01,SW,217,2.6,6.0,61,0.00,CLR,,0.00,WeatherDisplay:10.37,2013-07-25 21:18:00,
2013-07-25 16:24:00,81.7,67.4,30.01,SSW,195,2.1,3.5,62,0.00,CLR,,0.00,WeatherDisplay:10.37,2013-07-25 21:24:00,
2013-07-25 16:29:00,82.1,67.3,30.00,SW,226,2.9,4.0,61,0.00,CLR,,0.00,WeatherDisplay:10.37,2013-07-25 21:29:00,
2013-07-25 16:34:00,81.8,66.6,30.00,SSW,212,2.3,4.6,60,0.00,CLR,,0.00,WeatherDisplay:10.37,2013-07-25 21:34:00,
2013-07-25 16:39:00,82.2,67.9,30.00,SSE,148,1.7,3.5,62,0.00,CLR,,0.00,WeatherDisplay:10.37,2013-07-25 21:39:00,
2013-07-25 16:44:00,82.8,66.5,30.00,SSW,212,2.7,5.0,58,0.00,CLR,,0.00,WeatherDisplay:10.37,2013-07-25 21:44:00,
2013-07-25 16:49:00,82.7,66.4,30.00,SSW,207,3.3,5.8,58,0.00,CLR,,0.00,WeatherDisplay:10.37,2013-07-25 21:49:00,
2013-07-25 16:54:00,82.5,67.7,30.00,WSW,245,3.6,5.0,61,0.00,CLR,,0.00,WeatherDisplay:10.37,2013-07-25 21:54:00,
2013-07-25 16:59:00,82.5,66.7,30.00,SW,215,4.0,6.9,59,0.00,CLR,,0.00,WeatherDisplay:10.37,2013-07-25 21:59:00,
2013-07-25 17:04:00,81.6,65.9,30.01,South,191,1.9,3.5,59,0.00,CLR,,0.00,WeatherDisplay:10.37,2013-07-25 22:04:00,
2013-07-25 17:10:00,81.4,66.2,30.01,SW,219,3.4,5.8,60,0.00,CLR,,0.00,WeatherDisplay:10.37,2013-07-25 22:10:00,
2013-07-25 17:16:00,79.9,65.2,30.01,SSE,159,1.9,3.5,61,0.00,CLR,,0.00,WeatherDisplay:10.37,2013-07-25 22:16:00,
2013-07-25 17:21:00,79.8,66.5,30.00,South,169,1.4,4.6,64,0.00,CLR,,0.00,WeatherDisplay:10.37,2013-07-25 22:21:00,
2013-07-25 17:27:00,80.9,66.2,30.01,SSW,212,2.9,3.5,61,0.00,CLR,,0.00,WeatherDisplay:10.37,2013-07-25 22:27:00,
2013-07-25 17:32:00,81.3,67.0,30.00,SW,217,2.6,5.0,62,0.00,CLR,,0.00,WeatherDisplay:10.37,2013-07-25 22:32:00,
2013-07-25 17:38:00,81.6,65.4,30.00,South,172,3.1,5.8,58,0.00,CLR,,0.00,WeatherDisplay:10.37,2013-07-25 22:38:00,
2013-07-25 17:44:00,81.5,65.3,30.00,SSW,213,3.9,6.9,58,0.00,CLR,,0.00,WeatherDisplay:10.37,2013-07-25 22:44:00,
2013-07-25 17:50:00,81.5,65.8,30.00,SSW,201,2.6,3.5,59,0.00,CLR,,0.00,WeatherDisplay:10.37,2013-07-25 22:50:00,
2013-07-25 17:55:00,81.9,67.1,30.00,South,180,2.1,3.5,61,0.00,CLR,,0.00,WeatherDisplay:10.37,2013-07-25 22:55:00,
2013-07-25 18:02:00,81.9,66.6,30.00,West,266,1.9,4.6,60,0.00,CLR,,0.00,WeatherDisplay:10.37,2013-07-25 23:02:00,
2013-07-25 18:07:00,81.7,65.5,30.00,WSW,243,4.2,6.9,58,0.00,CLR,,0.00,WeatherDisplay:10.37,2013-07-25 23:07:00,
2013-07-25 18:12:00,81.3,66.1,30.00,SW,228,2.5,4.0,60,0.00,CLR,,0.00,WeatherDisplay:10.37,2013-07-25 23:12:00,
2013-07-25 18:17:00,81.2,65.5,30.00,SSW,204,1.9,4.6,59,0.00,CLR,,0.00,WeatherDisplay:10.37,2013-07-25 23:17:00,
2013-07-25 18:22:00,81.6,65.4,30.00,SW,233,2.8,5.8,58,0.00,CLR,,0.00,WeatherDisplay:10.37,2013-07-25 23:22:00,
2013-07-25 18:27:00,81.6,65.4,29.99,SSW,207,3.3,5.8,58,0.00,CLR,,0.00,WeatherDisplay:10.37,2013-07-25 23:27:00,
2013-07-25 18:33:00,81.4,66.2,30.00,SW,219,3.3,3.5,60,0.00,CLR,,0.00,WeatherDisplay:10.37,2013-07-25 23:33:00,
2013-07-25 18:38:00,81.1,65.4,30.00,SSW,208,2.5,3.5,59,0.00,CLR,,0.00,WeatherDisplay:10.37,2013-07-25 23:38:00,
2013-07-25 18:43:00,80.9,65.7,30.00,SW,214,2.3,3.5,60,0.00,CLR,,0.00,WeatherDisplay:10.37,2013-07-25 23:43:00,
2013-07-25 18:48:00,80.5,65.3,30.00,WSW,245,3.1,5.8,60,0.00,CLR,,0.00,WeatherDisplay:10.37,2013-07-25 23:48:00,
2013-07-25 18:53:00,80.1,65.4,30.00,SW,226,3.8,7.0,61,0.00,CLR,,0.00,WeatherDisplay:10.37,2013-07-25 23:53:00,
2013-07-25 18:58:00,79.7,65.5,30.00,South,186,2.7,3.5,62,0.00,CLR,,0.00,WeatherDisplay:10.37,2013-07-25 23:58:00,
2013-07-25 19:03:00,79.0,65.3,30.00,SSW,204,1.8,3.5,63,0.00,CLR,,0.00,WeatherDisplay:10.37,2013-07-26 00:03:00,
2013-07-25 19:08:00,78.2,65.0,29.99,SSE,159,2.5,4.6,64,0.00,CLR,,0.00,WeatherDisplay:10.37,2013-07-26 00:08:00,
2013-07-25 19:13:00,77.5,65.2,29.99,SSW,204,2.7,3.5,66,0.00,CLR,,0.00,WeatherDisplay:10.37,2013-07-26 00:13:00,
2013-07-25 19:18:00,77.0,64.8,29.99,SSW,207,2.6,3.5,66,0.00,CLR,,0.00,WeatherDisplay:10.37,2013-07-26 00:18:00,
2013-07-25 19:23:00,76.6,64.8,29.98,SSE,160,2.4,4.6,67,0.00,CLR,,0.00,WeatherDisplay:10.37,2013-07-26 00:23:00,
2013-07-25 19:28:00,76.2,64.9,29.98,SSE,166,1.8,2.3,68,0.00,CLR,,0.00,WeatherDisplay:10.37,2013-07-26 00:28:00,
2013-07-25 19:33:00,75.8,65.3,29.99,South,179,1.8,3.0,70,0.00,CLR,,0.00,WeatherDisplay:10.37,2013-07-26 00:33:00,
2013-07-25 19:38:00,75.3,65.2,29.99,South,174,1.3,3.5,71,0.00,CLR,,0.00,WeatherDisplay:10.37,2013-07-26 00:38:00,
2013-07-25 19:43:00,74.7,65.1,29.98,SSW,194,1.6,3.5,72,0.00,CLR,,0.00,WeatherDisplay:10.37,2013-07-26 00:43:00,
2013-07-25 19:48:00,74.1,65.3,29.99,SSW,194,1.2,2.3,74,0.00,CLR,,0.00,WeatherDisplay:10.37,2013-07-26 00:48:00,
2013-07-25 19:54:00,73.4,65.0,29.99,SSW,195,0.9,1.1,75,0.00,CLR,,0.00,WeatherDisplay:10.37,2013-07-26 00:54:00,
2013-07-25 19:59:00,72.7,64.7,29.99,South,191,1.0,1.1,76,0.00,CLR,,0.00,WeatherDisplay:10.37,2013-07-26 00:59:00,
2013-07-25 20:04:00,72.1,64.5,29.99,SSW,200,0.7,1.1,77,0.00,CLR,,0.00,WeatherDisplay:10.37,2013-07-26 01:04:00,
2013-07-25 20:09:00,71.5,64.6,30.00,SW,224,1.1,1.1,79,0.00,CLR,,0.00,WeatherDisplay:10.37,2013-07-26 01:09:00,
2013-07-25 20:14:00,70.9,64.4,30.00,SSW,212,0.2,2.3,80,0.00,CLR,,0.00,WeatherDisplay:10.37,2013-07-26 01:14:00,
2013-07-25 20:19:00,70.5,64.4,30.00,South,169,1.0,2.3,81,0.00,CLR,,0.00,WeatherDisplay:10.37,2013-07-26 01:19:00,
2013-07-25 20:24:00,70.2,64.4,30.00,SSW,206,0.3,1.1,82,0.00,CLR,,0.00,WeatherDisplay:10.37,2013-07-26 01:24:00,
2013-07-25 20:29:00,69.8,64.4,30.00,SSW,205,0.4,2.3,83,0.00,CLR,,0.00,WeatherDisplay:10.37,2013-07-26 01:29:00,
2013-07-25 20:34:00,69.4,64.4,30.00,SSW,205,0.4,1.1,84,0.00,CLR,,0.00,WeatherDisplay:10.37,2013-07-26 01:34:00,
2013-07-25 20:39:00,69.1,64.4,30.00,SSW,204,0.7,1.1,85,0.00,CLR,,0.00,WeatherDisplay:10.37,2013-07-26 01:39:00,
2013-07-25 20:44:00,68.9,64.5,30.00,SSW,209,0.3,1.1,86,0.00,CLR,,0.00,WeatherDisplay:10.37,2013-07-26 01:44:00,
2013-07-25 20:49:00,68.6,64.2,30.00,SSW,207,0.7,1.1,86,0.00,CLR,,0.00,WeatherDisplay:10.37,2013-07-26 01:49:00,
2013-07-25 20:54:00,68.4,64.4,30.00,SSW,207,0.8,1.1,87,0.00,CLR,,0.00,WeatherDisplay:10.37,2013-07-26 01:54:00,
2013-07-25 20:59:00,68.2,64.5,30.00,SSE,155,0.6,2.3,88,0.00,,,0.00,WeatherDisplay:10.37,2013-07-26 01:59:00,
2013-07-25 21:04:00,67.8,64.1,30.00,South,173,1.1,2.3,88,0.00,,,0.00,WeatherDisplay:10.37,2013-07-26 02:04:00,
2013-07-25 21:09:00,67.6,63.9,30.00,SSW,199,1.2,3.5,88,0.00,,,0.00,WeatherDisplay:10.37,2013-07-26 02:09:00,
2013-07-25 21:14:00,67.6,63.9,30.00,South,191,1.0,2.3,88,0.00,,,0.00,WeatherDisplay:10.37,2013-07-26 02:14:00,
2013-07-25 21:19:00,67.5,63.8,30.01,SSW,194,1.2,2.3,88,0.00,,,0.00,WeatherDisplay:10.37,2013-07-26 02:19:00,
2013-07-25 21:24:00,67.7,63.7,30.01,SW,218,1.4,3.0,87,0.00,,,0.00,WeatherDisplay:10.37,2013-07-26 02:24:00,
2013-07-25 21:30:00,67.9,63.6,30.01,SW,228,1.0,1.1,86,0.00,,,0.00,WeatherDisplay:10.37,2013-07-26 02:30:00,
2013-07-25 21:35:00,68.1,63.4,30.02,SSW,213,1.0,4.0,85,0.00,,,0.00,WeatherDisplay:10.37,2013-07-26 02:35:00,
2013-07-25 21:40:00,68.2,63.5,30.02,SW,218,1.4,3.0,85,0.00,,,0.00,WeatherDisplay:10.37,2013-07-26 02:40:00,
2013-07-25 21:45:00,68.1,63.4,30.02,SSW,204,1.0,3.0,85,0.00,,,0.00,WeatherDisplay:10.37,2013-07-26 02:45:00,
2013-07-25 21:50:00,67.9,63.6,30.02,South,181,1.2,2.3,86,0.00,,,0.00,WeatherDisplay:10.37,2013-07-26 02:50:00,
2013-07-25 21:55:00,67.7,63.4,30.01,South,191,1.6,3.5,86,0.00,,,0.00,WeatherDisplay:10.37,2013-07-26 02:55:00,
2013-07-25 22:00:00,67.7,63.4,30.01,SSE,153,1.4,3.5,86,0.00,,,0.00,WeatherDisplay:10.37,2013-07-26 03:00:00,
2013-07-25 22:05:00,67.6,63.3,30.01,SSW,213,0.9,2.3,86,0.00,,,0.00,WeatherDisplay:10.37,2013-07-26 03:05:00,
2013-07-25 22:10:00,67.5,63.2,30.01,SW,216,1.7,2.3,86,0.00,,,0.00,WeatherDisplay:10.37,2013-07-26 03:10:00,
2013-07-25 22:15:00,67.6,62.9,30.01,SW,215,1.3,3.5,85,0.00,,,0.00,WeatherDisplay:10.37,2013-07-26 03:15:00,
2013-07-25 22:20:00,67.7,63.0,30.01,South,184,1.5,3.5,85,0.00,,,0.00,WeatherDisplay:10.37,2013-07-26 03:20:00,
2013-07-25 22:25:00,67.7,63.0,30.01,SSW,212,1.1,2.3,85,0.00,,,0.00,WeatherDisplay:10.37,2013-07-26 03:25:00,
2013-07-25 22:30:00,67.6,62.9,30.01,SW,228,1.2,2.3,85,0.00,,,0.00,WeatherDisplay:10.37,2013-07-26 03:30:00,
2013-07-25 22:35:00,67.6,62.9,30.01,SSE,158,0.7,3.5,85,0.00,,,0.00,WeatherDisplay:10.37,2013-07-26 03:35:00,
2013-07-25 22:40:00,67.6,63.3,30.01,SSW,210,1.3,2.3,86,0.00,,,0.00,WeatherDisplay:10.37,2013-07-26 03:40:00,
2013-07-25 22:45:00,67.5,63.2,30.01,SW,222,1.4,2.3,86,0.00,,,0.00,WeatherDisplay:10.37,2013-07-26 03:45:00,
2013-07-25 22:51:00,67.4,63.1,30.01,South,190,1.7,2.3,86,0.00,,,0.00,WeatherDisplay:10.37,2013-07-26 03:51:00,
2013-07-25 22:56:00,67.3,63.0,30.01,SSE,167,1.7,3.5,86,0.00,,,0.00,WeatherDisplay:10.37,2013-07-26 03:56:00,
2013-07-25 23:01:00,67.3,63.0,30.01,SSE,160,1.3,2.3,86,0.00,,,0.00,WeatherDisplay:10.37,2013-07-26 04:01:00,
2013-07-25 23:02:00,67.3,63.0,30.01,SSE,158,1.3,2.3,86,0.00,,,0.00,WeatherDisplay:10.37,2013-07-26 04:02:00,
2013-07-25 23:03:00,67.3,63.0,30.01,SSW,211,1.6,3.5,86,0.00,,,0.00,WeatherDisplay:10.37,2013-07-26 04:03:00,
2013-07-25 23:08:00,67.2,62.9,30.01,SSW,210,1.4,2.3,86,0.00,,,0.00,WeatherDisplay:10.37,2013-07-26 04:08:00,
2013-07-25 23:13:00,67.1,63.1,30.01,South,173,0.6,1.1,87,0.00,,,0.00,WeatherDisplay:10.37,2013-07-26 04:13:00,
2013-07-25 23:18:00,67.0,63.0,30.01,South,172,0.8,2.3,87,0.00,,,0.00,WeatherDisplay:10.37,2013-07-26 04:18:00,
2013-07-25 23:23:00,66.9,63.2,30.00,SSW,210,0.1,1.1,88,0.00,,,0.00,WeatherDisplay:10.37,2013-07-26 04:23:00,
2013-07-25 23:28:00,66.8,63.1,30.00,SSW,194,1.0,2.3,88,0.00,,,0.00,WeatherDisplay:10.37,2013-07-26 04:28:00,
2013-07-25 23:34:00,66.7,63.0,30.00,SW,219,1.0,2.3,88,0.00,,,0.00,WeatherDisplay:10.37,2013-07-26 04:34:00,
2013-07-25 23:39:00,66.6,62.9,30.00,SSW,211,1.2,2.3,88,0.00,,,0.00,WeatherDisplay:10.37,2013-07-26 04:39:00,
2013-07-25 23:44:00,66.7,62.7,30.00,SSW,208,2.0,3.5,87,0.00,,,0.00,WeatherDisplay:10.37,2013-07-26 04:44:00,
2013-07-25 23:49:00,66.8,62.8,30.00,SW,218,1.0,3.5,87,0.00,,,0.00,WeatherDisplay:10.37,2013-07-26 04:49:00,
2013-07-25 23:54:00,66.9,62.9,30.00,SSW,210,0.9,3.5,87,0.00,,,0.00,WeatherDisplay:10.37,2013-07-26 04:54:00,
2013-07-25 23:59:00,66.9,62.6,30.00,SW,229,2.0,3.5,86,0.00,,,0.00,WeatherDisplay:10.37,2013-07-26 04:59:00,